Time;durP1;ratioP1;P1;durP2;ratioP2;P2;SDS_P1;SDS_P2;PMS_P1;PMS_P2;Temp;Humidity;BMP_temperature;BMP_pressure;BME280_temperature;BME280_humidity;BME280_pressure;Samples;Min_cycle;Max_cycle;Signal;HPM_P1;HPM_P2
2022/07/01 00:02:25;;;;;;;23.77;10.85;;;;;;;;;;5059807;28;20016;-74
2022/07/01 00:04:51;;;;;;;21.42;10.73;;;;;;;;;;5061252;28;20031;-74
2022/07/01 00:07:17;;;;;;;18.90;11.02;;;;;;;;;;5058308;28;20100;-74
2022/07/01 00:09:44;;;;;;;22.77;10.80;;;;;;;;;;5058176;28;20028;-74
2022/07/01 00:12:10;;;;;;;20.45;11.77;;;;;;;;;;5056251;28;20029;-74
2022/07/01 00:14:36;;;;;;;19.95;11.10;;;;;;;;;;5060489;28;20040;-74
2022/07/01 00:17:02;;;;;;;16.88;11.48;;;;;;;;;;5057749;28;20027;-74
2022/07/01 00:19:29;;;;;;;27.35;12.50;;;;;;;;;;5061495;28;20063;-75
2022/07/01 00:21:55;;;;;;;26.63;11.65;;;;;;;;;;5058858;28;20078;-75
2022/07/01 00:24:21;;;;;;;23.08;11.10;;;;;;;;;;5062044;28;20021;-74
2022/07/01 00:26:47;;;;;;;18.15;11.05;;;;;;;;;;5061226;28;20074;-74
2022/07/01 00:29:13;;;;;;;26.20;12.07;;;;;;;;;;5062049;28;20046;-75
2022/07/01 00:31:39;;;;;;;20.52;10.90;;;;;;;;;;5063387;28;20025;-74
2022/07/01 00:34:05;;;;;;;18.67;11.15;;;;;;;;;;5062968;28;20584;-74
2022/07/01 00:36:31;;;;;;;21.88;10.63;;;;;;;;;;5060572;28;20038;-74
2022/07/01 00:39:00;;;;;;;16.83;11.02;;;;;;;;;;5067068;28;20107;-75
2022/07/01 00:41:27;;;;;;;18.75;10.48;;;;;;;;;;5053642;28;20455;-74
2022/07/01 00:43:53;;;;;;;17.58;10.32;;;;;;;;;;5067890;28;20213;-74
2022/07/01 00:46:20;;;;;;;15.82;10.52;;;;;;;;;;5067890;28;20012;-74
2022/07/01 00:48:46;;;;;;;20.30;10.43;;;;;;;;;;5060229;28;20099;-73
2022/07/01 00:51:12;;;;;;;20.60;10.93;;;;;;;;;;5055807;28;20051;-74
2022/07/01 00:53:38;;;;;;;23.83;10.32;;;;;;;;;;5062627;28;20036;-74
2022/07/01 00:56:04;;;;;;;16.35;10.23;;;;;;;;;;5056444;28;20028;-74
2022/07/01 00:58:30;;;;;;;19.63;10.88;;;;;;;;;;5057491;28;20025;-75
2022/07/01 01:00:58;;;;;;;17.27;10.77;;;;;;;;;;5057135;28;20036;-74
2022/07/01 01:03:24;;;;;;;15.80;10.55;;;;;;;;;;5052330;28;20090;-74
2022/07/01 01:05:51;;;;;;;18.80;10.57;;;;;;;;;;5052550;28;20105;-74
2022/07/01 01:08:17;;;;;;;19.05;11.35;;;;;;;;;;5056752;28;20492;-74
2022/07/01 01:10:43;;;;;;;16.98;11.05;;;;;;;;;;5058375;28;20035;-74
2022/07/01 01:13:10;;;;;;;19.33;10.75;;;;;;;;;;5065532;28;20626;-74
2022/07/01 01:15:37;;;;;;;19.77;10.75;;;;;;;;;;5063045;28;20024;-74
2022/07/01 01:18:03;;;;;;;20.60;11.45;;;;;;;;;;5059595;28;20021;-74
2022/07/01 01:20:47;;;;;;;19.58;11.93;;;;;;;;;;5057788;28;20462;-74
2022/07/01 01:23:13;;;;;;;19.52;12.10;;;;;;;;;;5053053;28;20021;-75
2022/07/01 01:25:40;;;;;;;21.95;12.20;;;;;;;;;;5059251;28;20037;-75
2022/07/01 01:28:06;;;;;;;18.90;10.90;;;;;;;;;;5059231;28;20024;-75
2022/07/01 01:30:32;;;;;;;20.73;11.63;;;;;;;;;;5055044;28;20040;-74
2022/07/01 01:32:58;;;;;;;21.83;11.60;;;;;;;;;;5059428;28;20140;-74
2022/07/01 01:35:24;;;;;;;21.25;12.10;;;;;;;;;;5052304;28;20560;-74
2022/07/01 01:37:51;;;;;;;23.98;12.57;;;;;;;;;;5053644;28;20029;-74
2022/07/01 01:40:17;;;;;;;18.17;10.98;;;;;;;;;;5056401;28;20569;-74
2022/07/01 01:42:44;;;;;;;21.83;11.05;;;;;;;;;;5055330;28;20025;-75
2022/07/01 01:45:10;;;;;;;19.60;10.60;;;;;;;;;;5050462;28;20027;-74
2022/07/01 01:47:36;;;;;;;21.75;11.75;;;;;;;;;;5054310;28;20498;-74
2022/07/01 01:50:04;;;;;;;18.60;10.88;;;;;;;;;;5063881;28;20031;-75
2022/07/01 01:52:30;;;;;;;23.23;10.95;;;;;;;;;;5052488;28;20028;-77
2022/07/01 01:54:56;;;;;;;23.13;11.57;;;;;;;;;;5054032;28;20052;-75
2022/07/01 01:57:22;;;;;;;17.70;11.15;;;;;;;;;;5051943;28;20029;-75
2022/07/01 01:59:48;;;;;;;23.08;10.38;;;;;;;;;;5053294;28;20066;-76
2022/07/01 02:02:15;;;;;;;17.13;10.60;;;;;;;;;;5057971;28;20016;-75
2022/07/01 02:04:41;;;;;;;19.42;10.82;;;;;;;;;;5060622;28;20429;-75
2022/07/01 02:07:07;;;;;;;19.17;11.00;;;;;;;;;;5052609;28;20515;-75
2022/07/01 02:09:33;;;;;;;18.15;11.27;;;;;;;;;;5052834;28;20051;-75
2022/07/01 02:11:59;;;;;;;23.98;10.77;;;;;;;;;;5049824;28;20021;-75
2022/07/01 02:14:25;;;;;;;23.00;11.57;;;;;;;;;;5057963;28;20532;-75
2022/07/01 02:16:52;;;;;;;28.23;10.98;;;;;;;;;;5060187;28;20028;-74
2022/07/01 02:19:18;;;;;;;17.60;9.93;;;;;;;;;;5059822;28;20037;-76
2022/07/01 02:21:44;;;;;;;22.30;9.60;;;;;;;;;;5055288;28;20017;-76
2022/07/01 02:24:10;;;;;;;18.77;9.93;;;;;;;;;;5049351;28;20429;-76
2022/07/01 02:26:36;;;;;;;22.65;9.05;;;;;;;;;;5054282;28;20032;-75
2022/07/01 02:29:02;;;;;;;14.73;8.50;;;;;;;;;;5051348;28;20542;-75
2022/07/01 02:31:28;;;;;;;22.52;10.13;;;;;;;;;;5053211;28;20025;-75
2022/07/01 02:33:54;;;;;;;17.45;8.73;;;;;;;;;;5053102;28;20087;-75
2022/07/01 02:36:20;;;;;;;20.23;9.07;;;;;;;;;;5055483;28;20029;-75
2022/07/01 02:38:46;;;;;;;23.00;9.60;;;;;;;;;;5062189;28;20039;-75
2022/07/01 02:41:13;;;;;;;22.33;9.75;;;;;;;;;;5052005;28;20041;-75
2022/07/01 02:43:39;;;;;;;18.42;8.75;;;;;;;;;;5055030;28;20017;-75
2022/07/01 02:46:05;;;;;;;22.42;9.23;;;;;;;;;;5061968;28;20017;-75
2022/07/01 02:48:31;;;;;;;25.70;9.63;;;;;;;;;;5052363;28;20049;-76
2022/07/01 02:50:57;;;;;;;18.35;10.05;;;;;;;;;;5051843;28;20021;-75
2022/07/01 02:53:23;;;;;;;23.17;10.70;;;;;;;;;;5054995;28;20029;-76
2022/07/01 02:55:49;;;;;;;19.08;10.10;;;;;;;;;;5056742;28;20052;-74
2022/07/01 02:58:15;;;;;;;20.83;7.93;;;;;;;;;;5057763;28;20052;-75
2022/07/01 03:00:42;;;;;;;16.95;7.22;;;;;;;;;;5055979;28;20112;-76
2022/07/01 03:03:08;;;;;;;21.00;7.60;;;;;;;;;;5057744;28;20485;-74
2022/07/01 03:05:34;;;;;;;24.25;8.27;;;;;;;;;;5067249;28;20064;-75
2022/07/01 03:08:00;;;;;;;19.10;7.60;;;;;;;;;;5054447;28;20074;-75
2022/07/01 03:10:26;;;;;;;23.02;8.60;;;;;;;;;;5057481;28;20048;-74
2022/07/01 03:12:53;;;;;;;20.92;7.90;;;;;;;;;;5053421;28;20419;-75
2022/07/01 03:15:19;;;;;;;17.95;6.90;;;;;;;;;;5049374;28;20749;-75
2022/07/01 03:17:47;;;;;;;20.83;6.70;;;;;;;;;;5057718;28;20021;-75
2022/07/01 03:20:15;;;;;;;16.45;6.75;;;;;;;;;;5049179;28;20480;-75
2022/07/01 03:22:42;;;;;;;28.92;7.55;;;;;;;;;;5052485;28;20032;-75
2022/07/01 03:25:08;;;;;;;18.65;7.55;;;;;;;;;;5062285;28;20025;-75
2022/07/01 03:27:35;;;;;;;16.83;7.03;;;;;;;;;;5051451;28;20516;-74
2022/07/01 03:30:01;;;;;;;13.98;6.45;;;;;;;;;;5051184;28;20056;-75
2022/07/01 03:32:28;;;;;;;19.20;6.70;;;;;;;;;;5053577;28;20049;-75
2022/07/01 03:34:54;;;;;;;17.45;5.68;;;;;;;;;;5061206;28;20051;-75
2022/07/01 03:37:21;;;;;;;18.13;6.07;;;;;;;;;;5054049;28;20032;-76
2022/07/01 03:39:48;;;;;;;16.42;5.30;;;;;;;;;;5054519;28;20036;-75
2022/07/01 03:42:14;;;;;;;23.27;6.40;;;;;;;;;;5052333;28;20009;-75
2022/07/01 03:44:40;;;;;;;19.55;5.75;;;;;;;;;;5058870;28;20031;-75
2022/07/01 03:47:06;;;;;;;16.65;6.32;;;;;;;;;;5054648;28;20025;-75
2022/07/01 03:49:36;;;;;;;23.67;7.30;;;;;;;;;;5052517;28;20032;-76
2022/07/01 03:52:06;;;;;;;20.73;7.10;;;;;;;;;;5047904;28;20035;-76
2022/07/01 03:54:38;;;;;;;18.02;6.32;;;;;;;;;;5054440;28;20445;-75
2022/07/01 03:57:08;;;;;;;17.13;5.93;;;;;;;;;;5055304;28;20024;-75
2022/07/01 03:59:38;;;;;;;15.18;5.95;;;;;;;;;;5051063;28;20053;-75
2022/07/01 04:02:05;;;;;;;26.65;6.32;;;;;;;;;;5045106;28;20121;-75
2022/07/01 04:04:31;;;;;;;25.75;7.68;;;;;;;;;;5046290;28;20049;-75
2022/07/01 04:06:59;;;;;;;16.92;6.40;;;;;;;;;;5048131;28;20675;-75
2022/07/01 04:09:25;;;;;;;15.75;5.90;;;;;;;;;;5050409;28;20027;-75
2022/07/01 04:11:51;;;;;;;16.70;5.45;;;;;;;;;;5054530;28;20033;-75
2022/07/01 04:14:18;;;;;;;16.80;5.88;;;;;;;;;;5046562;28;20039;-76
2022/07/01 04:16:45;;;;;;;16.45;5.57;;;;;;;;;;5053498;28;20033;-75
2022/07/01 04:19:11;;;;;;;19.75;6.30;;;;;;;;;;5057641;28;20032;-75
2022/07/01 04:24:25;;;;;;;23.05;6.88;;;;;;;;;;5063410;28;20051;-75
2022/07/01 04:26:51;;;;;;;14.43;7.55;;;;;;;;;;5063915;28;20020;-75
2022/07/01 04:29:18;;;;;;;20.23;7.25;;;;;;;;;;5063671;28;20090;-75
2022/07/01 04:31:45;;;;;;;19.00;6.50;;;;;;;;;;5060680;28;20036;-76
2022/07/01 04:34:12;;;;;;;18.77;6.10;;;;;;;;;;5060317;28;20408;-76
2022/07/01 04:36:38;;;;;;;17.23;6.03;;;;;;;;;;5060321;28;20029;-74
2022/07/01 04:39:05;;;;;;;17.08;5.70;;;;;;;;;;5061036;28;20488;-76
2022/07/01 04:44:17;;;;;;;17.27;5.90;;;;;;;;;;5060408;28;20035;-75
2022/07/01 04:46:43;;;;;;;23.58;7.65;;;;;;;;;;5060960;28;20040;-74
2022/07/01 04:49:09;;;;;;;24.88;6.85;;;;;;;;;;5058873;28;20029;-75
2022/07/01 04:51:35;;;;;;;18.83;6.72;;;;;;;;;;5060012;28;20028;-74
2022/07/01 04:54:01;;;;;;;15.43;7.88;;;;;;;;;;5060782;28;20041;-74
2022/07/01 04:56:28;;;;;;;22.02;8.20;;;;;;;;;;5060051;28;20036;-74
2022/07/01 04:58:57;;;;;;;17.30;8.00;;;;;;;;;;5060944;28;20039;-73
2022/07/01 05:01:24;;;;;;;24.42;9.07;;;;;;;;;;5059179;28;20020;-74
2022/07/01 05:03:50;;;;;;;18.95;8.32;;;;;;;;;;5060528;28;20028;-73
2022/07/01 05:06:16;;;;;;;24.85;8.60;;;;;;;;;;5059002;28;20031;-74
2022/07/01 05:08:43;;;;;;;29.10;9.05;;;;;;;;;;5057131;28;20616;-73
2022/07/01 05:11:09;;;;;;;20.63;8.95;;;;;;;;;;5061296;28;20031;-73
2022/07/01 05:13:35;;;;;;;20.42;9.00;;;;;;;;;;5061690;28;20029;-73
2022/07/01 05:16:02;;;;;;;20.67;9.43;;;;;;;;;;5060807;28;20682;-73
2022/07/01 05:23:57;;;;;;;16.85;9.45;;;;;;;;;;5064642;28;20035;-73
2022/07/01 05:26:25;;;;;;;23.92;10.65;;;;;;;;;;5063587;28;20392;-73
2022/07/01 05:28:52;;;;;;;19.85;9.40;;;;;;;;;;5064875;28;20035;-73
2022/07/01 05:31:18;;;;;;;20.48;9.00;;;;;;;;;;5062570;28;20027;-72
2022/07/01 05:33:44;;;;;;;21.55;9.38;;;;;;;;;;5064191;28;20055;-73
2022/07/01 05:36:10;;;;;;;14.82;8.60;;;;;;;;;;5063068;28;20024;-72
2022/07/01 05:38:37;;;;;;;18.70;9.43;;;;;;;;;;5064378;28;20024;-73
2022/07/01 05:41:03;;;;;;;18.23;9.25;;;;;;;;;;5064806;28;20024;-72
2022/07/01 05:43:30;;;;;;;20.10;10.48;;;;;;;;;;5062631;28;20388;-73
2022/07/01 05:45:56;;;;;;;18.58;10.10;;;;;;;;;;5054007;28;20551;-73
2022/07/01 05:48:23;;;;;;;21.10;12.95;;;;;;;;;;5057479;28;20295;-73
2022/07/01 05:50:49;;;;;;;22.85;13.73;;;;;;;;;;5058350;28;20076;-73
2022/07/01 05:53:15;;;;;;;21.88;13.20;;;;;;;;;;5057414;28;20540;-73
2022/07/01 05:55:42;;;;;;;21.55;12.52;;;;;;;;;;5091735;28;20427;-73
2022/07/01 05:58:09;;;;;;;32.38;13.60;;;;;;;;;;5049776;28;20135;-74
2022/07/01 06:00:35;;;;;;;23.67;11.95;;;;;;;;;;5060890;28;20582;-73
2022/07/01 06:03:02;;;;;;;22.08;12.38;;;;;;;;;;5061621;28;20024;-73
2022/07/01 06:05:29;;;;;;;19.55;11.48;;;;;;;;;;5060915;28;20016;-74
2022/07/01 06:07:55;;;;;;;27.23;12.82;;;;;;;;;;5061660;28;20036;-74
2022/07/01 06:10:22;;;;;;;22.27;11.85;;;;;;;;;;5061529;28;20082;-74
2022/07/01 06:12:48;;;;;;;19.55;11.60;;;;;;;;;;5062482;28;20033;-74
2022/07/01 06:15:14;;;;;;;18.58;10.93;;;;;;;;;;5058625;28;20032;-74
2022/07/01 06:17:41;;;;;;;17.00;9.95;;;;;;;;;;5062673;28;20024;-74
2022/07/01 06:20:07;;;;;;;22.55;10.15;;;;;;;;;;5050430;28;20036;-73
2022/07/01 06:22:34;;;;;;;23.33;10.82;;;;;;;;;;5061170;28;20028;-74
2022/07/01 06:25:00;;;;;;;24.55;10.35;;;;;;;;;;5061818;28;20516;-74
2022/07/01 06:27:27;;;;;;;22.83;10.18;;;;;;;;;;5055554;28;20025;-74
2022/07/01 06:29:53;;;;;;;23.95;10.30;;;;;;;;;;5062205;28;20028;-74
2022/07/01 06:32:19;;;;;;;26.45;10.25;;;;;;;;;;5061061;28;20119;-73
2022/07/01 06:34:45;;;;;;;16.60;9.20;;;;;;;;;;5060614;28;20047;-74
2022/07/01 06:37:12;;;;;;;18.20;8.82;;;;;;;;;;5061809;28;20021;-74
2022/07/01 06:39:38;;;;;;;15.82;8.65;;;;;;;;;;5059777;28;20784;-74
2022/07/01 06:42:04;;;;;;;20.50;9.60;;;;;;;;;;5060827;28;20105;-73
2022/07/01 06:44:31;;;;;;;20.98;8.88;;;;;;;;;;5061551;28;20098;-74
2022/07/01 06:46:57;;;;;;;24.02;9.43;;;;;;;;;;5061708;28;20032;-73
2022/07/01 06:49:23;;;;;;;19.75;8.88;;;;;;;;;;5058521;28;20135;-73
2022/07/01 06:51:49;;;;;;;27.48;9.63;;;;;;;;;;5058268;28;20090;-73
2022/07/01 06:54:17;;;;;;;18.08;9.50;;;;;;;;;;5060207;28;20059;-74
2022/07/01 06:56:43;;;;;;;19.15;9.65;;;;;;;;;;5064524;28;20032;-73
2022/07/01 06:59:09;;;;;;;19.38;10.13;;;;;;;;;;5066158;28;20039;-74
2022/07/01 07:01:36;;;;;;;20.08;10.48;;;;;;;;;;5065313;28;20783;-74
2022/07/01 07:04:02;;;;;;;27.92;10.98;;;;;;;;;;5064570;28;20075;-74
2022/07/01 07:06:29;;;;;;;19.77;9.93;;;;;;;;;;5063524;28;20025;-74
2022/07/01 07:08:55;;;;;;;15.15;8.95;;;;;;;;;;5066788;28;20024;-74
2022/07/01 07:11:21;;;;;;;18.95;10.13;;;;;;;;;;5066232;28;20052;-73
2022/07/01 07:13:47;;;;;;;15.35;9.68;;;;;;;;;;5067422;28;20043;-72
2022/07/01 07:16:13;;;;;;;17.92;9.30;;;;;;;;;;5065758;28;20067;-73
2022/07/01 07:18:40;;;;;;;16.70;8.93;;;;;;;;;;5065729;28;20040;-73
2022/07/01 07:21:06;;;;;;;17.27;9.82;;;;;;;;;;5057153;28;20111;-74
2022/07/01 07:23:32;;;;;;;13.65;9.07;;;;;;;;;;5063628;28;20548;-73
2022/07/01 07:25:58;;;;;;;17.55;9.60;;;;;;;;;;5067766;28;20028;-73
2022/07/01 07:28:24;;;;;;;20.10;8.88;;;;;;;;;;5067619;28;20028;-73
2022/07/01 07:30:51;;;;;;;17.67;9.48;;;;;;;;;;5066590;28;20017;-74
2022/07/01 07:33:17;;;;;;;16.85;10.88;;;;;;;;;;5066437;28;20060;-73
2022/07/01 07:35:43;;;;;;;16.83;9.25;;;;;;;;;;5065448;28;20041;-73
2022/07/01 07:38:10;;;;;;;19.88;9.88;;;;;;;;;;5065315;28;20024;-73
2022/07/01 07:40:36;;;;;;;20.00;10.02;;;;;;;;;;5067476;28;20020;-73
2022/07/01 07:43:03;;;;;;;19.10;10.70;;;;;;;;;;5065018;28;20500;-73
2022/07/01 07:45:29;;;;;;;15.77;10.00;;;;;;;;;;5063747;28;20021;-74
2022/07/01 07:47:56;;;;;;;24.90;10.43;;;;;;;;;;5063109;28;20030;-73
2022/07/01 07:50:22;;;;;;;21.42;10.45;;;;;;;;;;5062143;28;20029;-72
2022/07/01 07:52:49;;;;;;;16.42;10.40;;;;;;;;;;5063768;28;20093;-73
2022/07/01 07:55:15;;;;;;;21.05;10.43;;;;;;;;;;5063144;28;20063;-73
2022/07/01 07:57:41;;;;;;;18.17;10.95;;;;;;;;;;5062675;28;20476;-73
2022/07/01 08:00:09;;;;;;;18.92;9.95;;;;;;;;;;5063536;28;20074;-74
2022/07/01 08:02:36;;;;;;;17.08;9.60;;;;;;;;;;5063207;28;20021;-73
2022/07/01 08:05:02;;;;;;;20.75;9.50;;;;;;;;;;5062041;28;20024;-74
2022/07/01 08:07:28;;;;;;;23.23;9.70;;;;;;;;;;5063345;28;20024;-73
2022/07/01 08:09:55;;;;;;;23.05;9.85;;;;;;;;;;5056433;28;20096;-73
2022/07/01 08:12:22;;;;;;;19.40;9.50;;;;;;;;;;5062224;28;20107;-74
2022/07/01 08:14:48;;;;;;;13.85;9.30;;;;;;;;;;5061847;28;20040;-74
2022/07/01 08:17:16;;;;;;;24.88;10.45;;;;;;;;;;5063386;28;20013;-73
2022/07/01 08:19:42;;;;;;;15.95;8.98;;;;;;;;;;5055123;28;20386;-73
2022/07/01 08:22:08;;;;;;;19.70;9.93;;;;;;;;;;5060244;28;20036;-74
2022/07/01 08:24:34;;;;;;;25.00;9.38;;;;;;;;;;5061289;28;20033;-73
2022/07/01 08:27:01;;;;;;;19.50;9.45;;;;;;;;;;5061754;28;20599;-73
2022/07/01 08:29:27;;;;;;;16.15;8.82;;;;;;;;;;5062676;28;20020;-73
2022/07/01 08:31:53;;;;;;;23.60;10.25;;;;;;;;;;5055110;28;20025;-73
2022/07/01 08:34:19;;;;;;;15.90;9.07;;;;;;;;;;5061484;28;20500;-73
2022/07/01 08:36:45;;;;;;;19.92;9.32;;;;;;;;;;5062481;28;20115;-73
2022/07/01 08:39:11;;;;;;;20.63;8.93;;;;;;;;;;5061186;28;20032;-73
2022/07/01 08:41:40;;;;;;;20.65;9.05;;;;;;;;;;5062968;28;20024;-73
2022/07/01 08:44:06;;;;;;;17.80;9.10;;;;;;;;;;5062737;28;20803;-74
2022/07/01 08:46:33;;;;;;;20.02;9.75;;;;;;;;;;5062488;28;20032;-73
2022/07/01 08:49:00;;;;;;;21.00;9.85;;;;;;;;;;5064551;28;20016;-74
2022/07/01 08:51:26;;;;;;;22.08;9.10;;;;;;;;;;5064452;28;20076;-72
2022/07/01 08:53:52;;;;;;;22.88;9.77;;;;;;;;;;5065917;28;20036;-72
2022/07/01 08:59:03;;;;;;;10.93;8.50;;;;;;;;;;5065569;28;20098;-72
2022/07/01 09:01:29;;;;;;;22.95;8.82;;;;;;;;;;5065913;28;20063;-77
2022/07/01 09:03:56;;;;;;;18.77;8.85;;;;;;;;;;5041713;28;20032;-73
2022/07/01 09:06:24;;;;;;;19.23;8.98;;;;;;;;;;5049867;28;20104;-74
2022/07/01 09:08:50;;;;;;;19.92;9.45;;;;;;;;;;5054204;28;20029;-75
2022/07/01 09:11:16;;;;;;;18.50;9.65;;;;;;;;;;5050623;28;20073;-72
2022/07/01 09:13:42;;;;;;;19.15;8.60;;;;;;;;;;5061660;28;20035;-73
2022/07/01 09:16:12;;;;;;;21.67;9.27;;;;;;;;;;5060973;28;20476;-74
2022/07/01 09:18:39;;;;;;;14.27;8.55;;;;;;;;;;5061112;28;20730;-73
2022/07/01 09:21:08;;;;;;;15.63;7.78;;;;;;;;;;5061288;28;20040;-73
2022/07/01 09:23:34;;;;;;;18.75;8.07;;;;;;;;;;5060577;28;20029;-73
2022/07/01 09:26:00;;;;;;;13.00;6.70;;;;;;;;;;5061179;28;20036;-73
2022/07/01 09:28:27;;;;;;;15.65;7.60;;;;;;;;;;5060904;28;20123;-74
2022/07/01 09:30:55;;;;;;;12.88;7.03;;;;;;;;;;5060685;28;20468;-73
2022/07/01 09:33:21;;;;;;;17.42;8.13;;;;;;;;;;5060670;28;20040;-74
2022/07/01 09:35:51;;;;;;;11.48;7.32;;;;;;;;;;5049334;28;20063;-74
2022/07/01 09:38:21;;;;;;;13.63;7.50;;;;;;;;;;5060297;28;20362;-73
2022/07/01 09:40:50;;;;;;;15.90;7.38;;;;;;;;;;5054943;28;20032;-74
2022/07/01 09:43:21;;;;;;;15.27;7.63;;;;;;;;;;5061354;28;20703;-74
2022/07/01 09:45:57;;;;;;;16.10;7.10;;;;;;;;;;5062083;28;20055;-73
2022/07/01 09:48:25;;;;;;;13.73;6.90;;;;;;;;;;5061790;28;20036;-73
2022/07/01 09:50:51;;;;;;;17.50;7.70;;;;;;;;;;5053010;28;20028;-73
2022/07/01 09:53:18;;;;;;;14.57;7.47;;;;;;;;;;5060875;28;20031;-74
2022/07/01 09:55:44;;;;;;;17.23;7.38;;;;;;;;;;5058286;28;20519;-74
2022/07/01 09:58:10;;;;;;;17.88;7.45;;;;;;;;;;5061537;28;20020;-76
2022/07/01 10:00:37;;;;;;;17.75;8.18;;;;;;;;;;5061609;28;20028;-77
2022/07/01 10:03:05;;;;;;;15.60;7.47;;;;;;;;;;5061611;28;20109;-72
2022/07/01 10:05:33;;;;;;;12.48;7.22;;;;;;;;;;5056640;28;20444;-71
2022/07/01 10:08:00;;;;;;;16.67;8.20;;;;;;;;;;5057889;28;20020;-72
2022/07/01 10:10:45;;;;;;;13.05;8.05;;;;;;;;;;5059886;28;20059;-73
2022/07/01 10:13:14;;;;;;;21.65;8.55;;;;;;;;;;5054655;28;20100;-72
2022/07/01 10:15:41;;;;;;;15.95;7.75;;;;;;;;;;5056648;28;20127;-73
2022/07/01 10:18:19;;;;;;;15.60;8.30;;;;;;;;;;5058460;28;20028;-73
2022/07/01 10:20:47;;;;;;;15.80;8.38;;;;;;;;;;5057411;28;20493;-73
2022/07/01 10:23:14;;;;;;;14.00;7.95;;;;;;;;;;5059504;28;20085;-72
2022/07/01 10:25:41;;;;;;;19.38;8.73;;;;;;;;;;5057717;28;20020;-73
2022/07/01 10:28:17;;;;;;;18.80;7.85;;;;;;;;;;5058422;28;20116;-73
2022/07/01 10:30:49;;;;;;;17.38;8.85;;;;;;;;;;5060018;28;20038;-73
2022/07/01 10:33:34;;;;;;;15.57;8.32;;;;;;;;;;5058022;28;20140;-72
2022/07/01 10:36:04;;;;;;;15.30;8.00;;;;;;;;;;5059311;28;20033;-72
2022/07/01 10:38:30;;;;;;;17.38;8.77;;;;;;;;;;5058960;28;20064;-73
2022/07/01 10:41:09;;;;;;;13.27;7.55;;;;;;;;;;5057881;28;20598;-72
2022/07/01 10:43:35;;;;;;;16.15;7.97;;;;;;;;;;5056546;28;20109;-73
2022/07/01 10:46:02;;;;;;;19.27;8.45;;;;;;;;;;5046056;28;20039;-72
2022/07/01 10:48:31;;;;;;;20.02;8.90;;;;;;;;;;5045587;28;20027;-73
2022/07/01 10:50:57;;;;;;;17.70;7.82;;;;;;;;;;5057048;28;20029;-72
2022/07/01 10:53:23;;;;;;;16.10;8.20;;;;;;;;;;5054217;28;20025;-74
2022/07/01 10:55:53;;;;;;;14.23;7.00;;;;;;;;;;5057271;28;20086;-74
2022/07/01 10:58:36;;;;;;;14.23;7.00;;;;;;;;;;5058480;28;20036;-73
2022/07/01 11:01:02;;;;;;;13.88;7.57;;;;;;;;;;5058665;28;20700;-73
2022/07/01 11:03:28;;;;;;;19.30;8.27;;;;;;;;;;5060238;28;20051;-73
2022/07/01 11:05:55;;;;;;;18.98;7.95;;;;;;;;;;5054189;28;20032;-74
2022/07/01 11:08:22;;;;;;;15.07;7.38;;;;;;;;;;5058288;28;20021;-72
2022/07/01 11:10:52;;;;;;;13.98;7.93;;;;;;;;;;5058836;28;20032;-77
2022/07/01 11:13:19;;;;;;;14.10;7.13;;;;;;;;;;5058495;28;20029;-75
2022/07/01 11:15:47;;;;;;;15.82;8.13;;;;;;;;;;5056275;28;20032;-74
2022/07/01 11:18:14;;;;;;;17.55;7.47;;;;;;;;;;5050086;28;20040;-74
2022/07/01 11:20:40;;;;;;;15.32;7.55;;;;;;;;;;5058934;28;20043;-74
2022/07/01 11:23:06;;;;;;;14.85;7.18;;;;;;;;;;5059889;28;20034;-76
2022/07/01 11:25:32;;;;;;;21.27;7.97;;;;;;;;;;5059425;28;20028;-76
2022/07/01 11:27:59;;;;;;;14.18;7.82;;;;;;;;;;5058601;28;20049;-74
2022/07/01 11:30:26;;;;;;;16.67;7.32;;;;;;;;;;5060598;28;20108;-73
2022/07/01 11:32:56;;;;;;;19.67;8.82;;;;;;;;;;5060177;28;20049;-74
2022/07/01 11:41:02;;;;;;;17.98;7.55;;;;;;;;;;5048250;28;20410;-73
2022/07/01 11:43:29;;;;;;;14.05;7.80;;;;;;;;;;5061845;28;20590;-74
2022/07/01 11:45:59;;;;;;;18.52;8.55;;;;;;;;;;5063591;28;20050;-75
2022/07/01 11:48:28;;;;;;;18.27;7.35;;;;;;;;;;5064229;28;20024;-75
2022/07/01 11:50:55;;;;;;;19.10;8.52;;;;;;;;;;5063638;28;20505;-73
2022/07/01 11:53:21;;;;;;;13.85;7.50;;;;;;;;;;5062305;28;20031;-73
2022/07/01 11:55:48;;;;;;;22.15;8.27;;;;;;;;;;5063707;28;20086;-73
2022/07/01 11:58:14;;;;;;;15.43;8.23;;;;;;;;;;5063153;28;20086;-72
2022/07/01 12:00:40;;;;;;;15.48;7.70;;;;;;;;;;5063236;28;20465;-72
2022/07/01 12:03:07;;;;;;;14.48;7.30;;;;;;;;;;5061775;28;20024;-72
2022/07/01 12:05:33;;;;;;;15.27;7.65;;;;;;;;;;5063692;28;20017;-73
2022/07/01 12:08:00;;;;;;;12.90;7.32;;;;;;;;;;5062433;28;20024;-72
2022/07/01 12:10:26;;;;;;;13.95;7.57;;;;;;;;;;5051284;28;20039;-73
2022/07/01 12:12:52;;;;;;;16.60;7.63;;;;;;;;;;5058708;28;20103;-73
2022/07/01 12:15:20;;;;;;;13.70;7.53;;;;;;;;;;5048890;28;20058;-72
2022/07/01 12:17:46;;;;;;;16.77;7.72;;;;;;;;;;5058849;28;20047;-73
2022/07/01 12:20:13;;;;;;;14.63;7.15;;;;;;;;;;5061198;28;20025;-73
2022/07/01 12:22:39;;;;;;;15.73;7.35;;;;;;;;;;5059997;28;20024;-74
2022/07/01 12:25:13;;;;;;;13.43;6.75;;;;;;;;;;5059527;28;20032;-75
2022/07/01 12:27:40;;;;;;;15.00;7.80;;;;;;;;;;5061134;28;20107;-74
2022/07/01 12:30:10;;;;;;;12.10;7.32;;;;;;;;;;5060998;28;20023;-73
2022/07/01 12:32:37;;;;;;;12.30;6.87;;;;;;;;;;5059729;28;20089;-73
2022/07/01 12:35:05;;;;;;;20.35;6.85;;;;;;;;;;5060723;28;20296;-76
2022/07/01 12:37:32;;;;;;;13.73;6.85;;;;;;;;;;5060332;28;20465;-72
2022/07/01 12:40:03;;;;;;;17.92;6.20;;;;;;;;;;5059756;28;20097;-75
2022/07/01 12:42:33;;;;;;;23.08;6.60;;;;;;;;;;5061043;28;20808;-72
2022/07/01 12:45:04;;;;;;;14.63;6.78;;;;;;;;;;5059192;28;20021;-73
2022/07/01 12:47:32;;;;;;;14.95;6.25;;;;;;;;;;5060465;28;20024;-73
2022/07/01 12:50:11;;;;;;;13.15;7.35;;;;;;;;;;5060045;28;20558;-72
2022/07/01 12:52:38;;;;;;;14.93;7.15;;;;;;;;;;5046325;28;20123;-73
2022/07/01 12:55:17;;;;;;;16.90;6.35;;;;;;;;;;5058773;28;20846;-74
2022/07/01 12:57:43;;;;;;;18.35;6.30;;;;;;;;;;5047280;28;20476;-74
2022/07/01 13:00:09;;;;;;;18.23;6.50;;;;;;;;;;5060612;28;20674;-72
2022/07/01 13:02:35;;;;;;;24.60;5.97;;;;;;;;;;5060173;28;20490;-74
2022/07/01 13:05:02;;;;;;;19.52;6.47;;;;;;;;;;5058642;28;20028;-76
2022/07/01 13:07:28;;;;;;;17.80;5.93;;;;;;;;;;5058668;28;20013;-72
2022/07/01 13:09:54;;;;;;;18.40;5.85;;;;;;;;;;5061592;28;20022;-72
2022/07/01 13:12:20;;;;;;;21.70;6.40;;;;;;;;;;5062266;28;20104;-73
2022/07/01 13:14:46;;;;;;;19.33;6.43;;;;;;;;;;5047953;28;20436;-71
2022/07/01 13:17:12;;;;;;;17.25;5.60;;;;;;;;;;5058205;28;20596;-72
2022/07/01 13:19:39;;;;;;;17.65;6.25;;;;;;;;;;5060597;28;20029;-72
2022/07/01 13:22:05;;;;;;;16.58;7.07;;;;;;;;;;5062038;28;20488;-72
2022/07/01 13:24:31;;;;;;;22.63;6.30;;;;;;;;;;5062311;28;20822;-72
2022/07/01 13:26:57;;;;;;;26.02;6.03;;;;;;;;;;5061712;28;20025;-71
2022/07/01 13:29:23;;;;;;;14.52;6.13;;;;;;;;;;5060319;28;20016;-72
2022/07/01 13:31:49;;;;;;;21.42;5.90;;;;;;;;;;5061901;28;20017;-72
2022/07/01 13:34:16;;;;;;;21.20;6.85;;;;;;;;;;5061605;28;20039;-72
2022/07/01 13:36:42;;;;;;;19.60;6.78;;;;;;;;;;5062171;28;20059;-71
2022/07/01 13:39:09;;;;;;;17.48;7.07;;;;;;;;;;5059821;28;20066;-72
2022/07/01 13:41:35;;;;;;;25.45;7.45;;;;;;;;;;5061541;28;20039;-71
2022/07/01 13:44:01;;;;;;;18.20;6.82;;;;;;;;;;5061337;28;20016;-72
2022/07/01 13:46:28;;;;;;;18.80;6.70;;;;;;;;;;5062090;28;20020;-72
2022/07/01 13:48:54;;;;;;;16.70;6.90;;;;;;;;;;5061633;28;20032;-71
2022/07/01 13:51:20;;;;;;;20.83;7.15;;;;;;;;;;5061675;28;20012;-72
2022/07/01 13:53:46;;;;;;;20.00;7.05;;;;;;;;;;5059383;28;20025;-71
2022/07/01 13:56:12;;;;;;;17.58;6.22;;;;;;;;;;5061220;28;20521;-72
2022/07/01 13:58:38;;;;;;;17.67;7.10;;;;;;;;;;5061546;28;20059;-71
2022/07/01 14:01:05;;;;;;;17.67;6.50;;;;;;;;;;5061436;28;20498;-72
2022/07/01 14:03:31;;;;;;;20.30;7.18;;;;;;;;;;5059835;28;20101;-72
2022/07/01 14:05:57;;;;;;;13.95;6.47;;;;;;;;;;5060769;28;20400;-71
2022/07/01 14:08:23;;;;;;;22.00;6.13;;;;;;;;;;5061067;28;20107;-71
2022/07/01 14:10:49;;;;;;;11.68;6.07;;;;;;;;;;5059673;28;20469;-71
2022/07/01 14:13:16;;;;;;;16.13;6.63;;;;;;;;;;5056107;28;20009;-71
2022/07/01 14:15:42;;;;;;;15.98;6.20;;;;;;;;;;5053759;28;20028;-72
2022/07/01 14:18:08;;;;;;;16.50;5.95;;;;;;;;;;5062787;28;20031;-72
2022/07/01 14:20:35;;;;;;;12.75;5.97;;;;;;;;;;5061443;28;20036;-72
2022/07/01 14:23:01;;;;;;;11.70;6.25;;;;;;;;;;5061228;28;20045;-72
2022/07/01 14:25:27;;;;;;;20.02;6.90;;;;;;;;;;5060787;28;20063;-72
2022/07/01 14:27:53;;;;;;;11.57;6.13;;;;;;;;;;5061496;28;20054;-72
2022/07/01 14:30:19;;;;;;;15.75;6.38;;;;;;;;;;5057683;28;20525;-72
2022/07/01 14:32:46;;;;;;;22.98;6.10;;;;;;;;;;5061068;28;20048;-71
2022/07/01 14:35:12;;;;;;;14.35;5.68;;;;;;;;;;5061011;28;20835;-72
2022/07/01 14:37:39;;;;;;;16.15;5.78;;;;;;;;;;5061199;28;20861;-72
2022/07/01 14:40:06;;;;;;;15.73;6.03;;;;;;;;;;5058873;28;20028;-71
2022/07/01 14:42:33;;;;;;;16.58;6.65;;;;;;;;;;5060888;28;20048;-71
2022/07/01 14:45:00;;;;;;;15.10;5.18;;;;;;;;;;5061117;28;20098;-71